createdAt,value
2018-06-28T00:00:49.814Z,91.71
2018-06-28T00:01:49.839Z,91.80
2018-06-28T00:02:49.857Z,92.29
2018-06-28T00:03:49.873Z,91.61
2018-06-28T00:04:49.885Z,91.99
2018-06-28T00:05:49.909Z,92.29
2018-06-28T00:06:49.923Z,91.61
2018-06-28T00:07:49.935Z,92.09
2018-06-28T00:08:50.024Z,91.99
2018-06-28T00:09:49.975Z,92.09
2018-06-28T00:10:49.995Z,92.52
2018-06-28T00:11:50.009Z,92.47
2018-06-28T00:13:50.040Z,92.38
2018-06-28T00:14:50.063Z,92.72
2018-06-28T00:15:50.079Z,92.43
2018-06-28T00:16:50.099Z,92.43
2018-06-28T00:17:50.111Z,92.38
2018-06-28T00:18:50.202Z,92.38
2018-06-28T00:19:50.149Z,92.76
2018-06-28T00:20:50.167Z,92.47
2018-06-28T00:21:50.180Z,92.29
2018-06-28T00:22:50.196Z,92.76
2018-06-28T00:23:50.213Z,92.76
2018-06-28T00:24:50.236Z,92.62
2018-06-28T00:25:50.251Z,92.33
2018-06-28T00:26:50.273Z,92.14
2018-06-28T00:27:50.284Z,92.52
2018-06-28T00:28:50.356Z,92.76
2018-06-28T00:29:50.322Z,92.52
2018-06-28T00:30:50.339Z,92.24
2018-06-28T00:31:50.356Z,92.43
2018-06-28T00:32:50.370Z,92.43
2018-06-28T00:33:50.415Z,92.24
2018-06-28T00:34:50.455Z,92.29
2018-06-28T00:35:50.425Z,92.96
2018-06-28T00:36:50.438Z,92.57
2018-06-28T00:37:50.459Z,91.22
2018-06-28T00:38:50.472Z,92.67
2018-06-28T00:39:50.494Z,92.05
2018-06-28T00:40:50.512Z,92.62
2018-06-28T00:41:50.530Z,92.62
2018-06-28T00:42:50.543Z,92.29
2018-06-28T00:43:50.571Z,92.33
2018-06-28T00:44:50.577Z,92.09
2018-06-28T00:45:50.594Z,92.09
2018-06-28T00:46:50.667Z,91.99
2018-06-28T00:47:50.627Z,92.29
2018-06-28T00:48:50.643Z,91.85
2018-06-28T00:49:50.697Z,92.29
2018-06-28T00:50:50.678Z,91.90
2018-06-28T00:51:50.696Z,92.24
2018-06-28T00:52:50.722Z,91.75
2018-06-28T00:53:50.736Z,92.29
2018-06-28T00:54:50.749Z,91.75
2018-06-28T00:55:50.762Z,92.24
2018-06-28T00:56:50.790Z,91.75
2018-06-28T00:57:50.801Z,92.05
2018-06-28T00:58:50.817Z,91.80
2018-06-28T00:59:50.829Z,91.75
2018-06-28T01:00:50.849Z,91.66
2018-06-28T01:01:50.943Z,91.75
2018-06-28T01:02:50.888Z,91.85
2018-06-28T01:03:50.902Z,91.75
2018-06-28T01:04:50.921Z,92.05
2018-06-28T01:05:50.936Z,92.24
2018-06-28T01:06:50.960Z,92.09
2018-06-28T01:07:51.043Z,91.90
2018-06-28T01:08:50.998Z,91.42
2018-06-28T01:09:51.010Z,91.61
2018-06-28T01:10:51.032Z,91.03
2018-06-28T01:11:51.047Z,90.65
2018-06-28T01:12:51.060Z,90.75
2018-06-28T01:13:51.095Z,90.75
2018-06-28T01:14:51.099Z,91.22
2018-06-28T01:15:51.116Z,91.42
2018-06-28T01:16:51.127Z,91.08
2018-06-28T01:17:51.149Z,91.42
2018-06-28T01:18:51.161Z,90.75
2018-06-28T01:19:51.185Z,91.28
2018-06-28T01:20:51.209Z,91.13
2018-06-28T01:21:51.218Z,90.99
2018-06-28T01:22:51.238Z,90.94
2018-06-28T01:23:51.252Z,91.32
2018-06-28T01:24:51.271Z,91.22
2018-06-28T01:25:51.288Z,91.47
2018-06-28T01:26:51.311Z,90.84
2018-06-28T01:27:51.315Z,90.75
2018-06-28T01:28:51.388Z,90.89
2018-06-28T01:29:51.355Z,90.55
2018-06-28T01:30:51.377Z,90.36
2018-06-28T01:31:51.389Z,90.17
2018-06-28T01:32:51.439Z,90.45
2018-06-28T01:33:51.422Z,90.65
2018-06-28T01:34:51.441Z,90.26
2018-06-28T01:35:51.463Z,90.65
2018-06-28T01:36:51.480Z,90.60
2018-06-28T01:37:51.495Z,90.60
2018-06-28T01:38:51.583Z,90.45
2018-06-28T01:39:51.528Z,90.17
2018-06-28T01:40:51.602Z,90.26
2018-06-28T01:41:51.562Z,90.45
2018-06-28T01:42:51.579Z,90.80
2018-06-28T01:43:51.595Z,91.37
2018-06-28T01:44:51.615Z,90.99
2018-06-28T01:45:51.642Z,91.18
2018-06-28T01:46:51.656Z,91.32
2018-06-28T01:47:51.680Z,91.08
2018-06-28T01:48:51.687Z,91.03
2018-06-28T01:49:51.698Z,91.37
2018-06-28T01:50:51.789Z,91.66
2018-06-28T01:51:51.737Z,92.14
2018-06-28T01:52:51.766Z,91.66
2018-06-28T01:53:51.782Z,91.99
2018-06-28T01:54:51.794Z,91.85
2018-06-28T01:55:51.808Z,92.14
2018-06-28T01:56:51.820Z,92.14
2018-06-28T01:57:51.843Z,92.24
2018-06-28T01:58:51.861Z,92.14
2018-06-28T01:59:51.871Z,91.85
2018-06-28T02:00:51.892Z,91.95
2018-06-28T02:01:51.909Z,91.75
2018-06-28T02:02:51.922Z,92.09
2018-06-28T02:03:51.939Z,91.61
2018-06-28T02:04:51.963Z,91.61
2018-06-28T02:05:51.979Z,91.85
2018-06-28T02:06:52.002Z,91.99
2018-06-28T02:07:52.009Z,91.75
2018-06-28T02:08:52.029Z,92.62
2018-06-28T02:09:52.079Z,92.62
2018-06-28T02:10:52.061Z,92.24
2018-06-28T02:11:52.076Z,92.52
2018-06-28T02:12:52.098Z,92.24
2018-06-28T02:13:52.119Z,92.14
2018-06-28T02:14:52.138Z,91.18
2018-06-28T02:15:52.199Z,92.24
2018-06-28T02:16:52.169Z,92.24
2018-06-28T02:17:52.190Z,92.24
2018-06-28T02:18:52.252Z,92.43
2018-06-28T02:19:52.224Z,92.43
2018-06-28T02:20:52.236Z,92.52
2018-06-28T02:21:52.304Z,92.62
2018-06-28T02:22:52.271Z,92.43
2018-06-28T02:23:52.291Z,92.43
2018-06-28T02:24:52.309Z,92.52
2018-06-28T02:25:52.321Z,92.52
2018-06-28T02:26:52.336Z,92.24
2018-06-28T02:27:52.363Z,92.33
2018-06-28T02:28:52.376Z,92.24
2018-06-28T02:29:52.390Z,92.24
2018-06-28T02:30:52.416Z,92.05
2018-06-28T02:31:52.426Z,91.66
2018-06-28T02:32:52.447Z,91.95
2018-06-28T02:33:52.471Z,92.14
2018-06-28T02:34:52.481Z,91.56
2018-06-28T02:35:52.492Z,91.75
2018-06-28T02:36:52.508Z,91.85
2018-06-28T02:37:52.551Z,92.24
2018-06-28T02:38:52.557Z,91.95
2018-06-28T02:39:52.568Z,92.05
2018-06-28T02:40:52.585Z,92.24
2018-06-28T02:41:52.594Z,92.24
2018-06-28T02:42:52.617Z,90.89
2018-06-28T02:43:52.633Z,92.91
2018-06-28T02:44:52.650Z,92.24
2018-06-28T02:45:52.665Z,92.91
2018-06-28T02:46:52.689Z,92.62
2018-06-28T02:47:52.701Z,92.62
2018-06-28T02:48:52.720Z,92.33
2018-06-28T02:49:52.740Z,92.62
2018-06-28T02:50:52.758Z,92.43
2018-06-28T02:51:52.825Z,92.24
2018-06-28T02:52:52.788Z,92.33
2018-06-28T02:53:52.802Z,92.24
2018-06-28T02:54:52.825Z,92.43
2018-06-28T02:55:52.839Z,92.62
2018-06-28T02:56:52.856Z,92.33
2018-06-28T02:57:52.870Z,92.43
2018-06-28T02:58:52.974Z,92.24
2018-06-28T02:59:52.905Z,93.19
2018-06-28T03:00:52.927Z,93.58
2018-06-28T03:01:52.941Z,93.29
2018-06-28T03:02:52.960Z,92.72
2018-06-28T03:03:56.987Z,93.01
2018-06-28T03:04:53.015Z,92.52
2018-06-28T03:05:53.009Z,92.33
2018-06-28T03:06:53.029Z,92.52
2018-06-28T03:07:53.050Z,92.52
2018-06-28T03:08:53.060Z,92.52
2018-06-28T03:09:53.178Z,92.52
2018-06-28T03:10:53.107Z,92.24
2018-06-28T03:11:53.120Z,92.62
2018-06-28T03:12:53.136Z,92.05
2018-06-28T03:13:53.147Z,91.95
2018-06-28T03:14:53.172Z,92.33
2018-06-28T03:15:53.185Z,92.52
2018-06-28T03:16:53.200Z,92.72
2018-06-28T03:17:53.238Z,92.52
2018-06-28T03:18:53.238Z,92.24
2018-06-28T03:19:53.258Z,92.05
2018-06-28T03:20:53.276Z,92.62
2018-06-28T03:21:53.285Z,92.33
2018-06-28T03:22:53.329Z,92.14
2018-06-28T03:23:53.324Z,92.24
2018-06-28T03:24:53.340Z,92.24
2018-06-28T03:25:53.353Z,92.24
2018-06-28T03:26:53.401Z,92.24
2018-06-28T03:27:53.387Z,92.62
2018-06-28T03:28:53.406Z,93.49
2018-06-28T03:29:53.423Z,92.81
2018-06-28T03:30:53.447Z,93.29
2018-06-28T03:31:53.464Z,93.49
2018-06-28T03:32:53.480Z,93.29
2018-06-28T03:33:53.498Z,93.29
2018-06-28T03:34:53.511Z,93.29
2018-06-28T03:35:53.525Z,93.39
2018-06-28T03:36:53.549Z,93.77
2018-06-28T03:37:53.665Z,93.96
2018-06-28T03:38:53.577Z,94.64
2018-06-28T03:39:53.607Z,94.16
2018-06-28T03:40:53.611Z,94.16
2018-06-28T03:41:53.669Z,94.11
2018-06-28T03:42:53.649Z,95.26
2018-06-28T03:43:53.673Z,94.88
2018-06-28T03:44:53.682Z,94.01
2018-06-28T03:45:53.740Z,95.07
2018-06-28T03:46:53.717Z,94.01
2018-06-28T03:47:53.813Z,94.98
2018-06-28T03:48:53.750Z,95.21
2018-06-28T03:49:53.773Z,95.12
2018-06-28T03:50:53.788Z,95.07
2018-06-28T03:51:53.801Z,94.93
2018-06-28T03:52:53.823Z,94.88
2018-06-28T03:53:53.894Z,95.07
2018-06-28T03:54:53.855Z,95.17
2018-06-28T03:55:53.869Z,94.88
2018-06-28T03:56:53.943Z,94.83
2018-06-28T03:57:53.907Z,95.12
2018-06-28T03:58:53.922Z,94.45
2018-06-28T03:59:53.940Z,94.35
2018-06-28T04:00:53.960Z,94.26
2018-06-28T04:01:53.971Z,94.35
2018-06-28T04:02:53.991Z,94.49
2018-06-28T04:03:54.008Z,94.45
2018-06-28T04:04:54.027Z,94.73
2018-06-28T04:05:54.047Z,94.45
2018-06-28T04:06:54.064Z,94.45
2018-06-28T04:07:54.074Z,94.26
2018-06-28T04:08:54.093Z,93.96
2018-06-28T04:09:54.111Z,93.87
2018-06-28T04:10:54.133Z,94.35
2018-06-28T04:11:54.145Z,94.21
2018-06-28T04:12:54.165Z,94.31
2018-06-28T04:13:54.181Z,94.98
2018-06-28T04:14:54.200Z,95.07
2018-06-28T04:15:54.222Z,95.21
2018-06-28T04:16:54.237Z,95.07
2018-06-28T04:17:54.251Z,94.73
2018-06-28T04:18:54.271Z,94.16
2018-06-28T04:19:54.283Z,94.45
2018-06-28T04:20:54.302Z,94.06
2018-06-28T04:21:54.321Z,95.12
2018-06-28T04:22:54.334Z,93.92
2018-06-28T04:23:54.351Z,93.92
2018-06-28T04:24:54.372Z,95.31
2018-06-28T04:25:54.389Z,94.88
2018-06-28T04:26:54.402Z,93.73
2018-06-28T04:27:54.422Z,95.26
2018-06-28T04:28:54.455Z,95.03
2018-06-28T04:29:54.455Z,95.07
2018-06-28T04:30:54.477Z,94.98
2018-06-28T04:31:54.489Z,93.92
2018-06-28T04:32:54.510Z,95.17
2018-06-28T04:33:54.531Z,95.12
2018-06-28T04:34:54.548Z,95.12
2018-06-28T04:35:54.558Z,94.64
2018-06-28T04:36:54.650Z,94.31
2018-06-28T04:37:54.592Z,94.35
2018-06-28T04:38:54.614Z,94.40
2018-06-28T04:39:54.636Z,94.69
2018-06-28T04:40:54.668Z,94.98
2018-06-28T04:41:54.663Z,94.69
2018-06-28T04:42:54.681Z,94.59
2018-06-28T04:43:54.696Z,94.11
2018-06-28T04:44:54.716Z,94.69
2018-06-28T04:45:54.732Z,95.17
2018-06-28T04:46:54.749Z,95.07
2018-06-28T04:47:54.763Z,95.26
2018-06-28T04:48:54.788Z,94.69
2018-06-28T04:49:54.828Z,95.17
2018-06-28T04:50:54.818Z,94.59
2018-06-28T04:51:54.833Z,94.35
2018-06-28T04:52:54.855Z,94.31
2018-06-28T04:53:54.899Z,94.31
2018-06-28T04:54:54.885Z,94.59
2018-06-28T04:56:54.920Z,94.78
2018-06-28T04:57:54.940Z,94.98
2018-06-28T04:58:55.008Z,94.01
2018-06-28T04:59:54.968Z,95.07
2018-06-28T05:00:54.989Z,95.17
2018-06-28T05:01:55.005Z,93.92
2018-06-28T05:02:55.027Z,95.55
2018-06-28T05:03:55.038Z,95.36
2018-06-28T05:04:55.061Z,95.07
2018-06-28T05:05:55.072Z,95.07
2018-06-28T05:06:55.091Z,95.17
2018-06-28T05:07:55.109Z,94.98
2018-06-28T05:08:55.125Z,95.36
2018-06-28T05:09:55.141Z,95.07
2018-06-28T05:10:55.158Z,95.45
2018-06-28T05:11:55.175Z,95.17
2018-06-28T05:12:55.193Z,95.36
2018-06-28T05:13:55.211Z,95.07
2018-06-28T05:14:55.229Z,95.07
2018-06-28T05:15:55.247Z,95.17
2018-06-28T05:16:55.258Z,94.98
2018-06-28T05:17:55.283Z,95.17
2018-06-28T05:18:55.484Z,93.96
2018-06-28T05:19:55.313Z,94.49
2018-06-28T05:20:55.328Z,95.26
2018-06-28T05:21:55.346Z,95.07
2018-06-28T05:22:55.400Z,94.98
2018-06-28T05:23:55.386Z,94.40
2018-06-28T05:24:55.401Z,94.35
2018-06-28T05:25:55.412Z,94.93
2018-06-28T05:26:55.434Z,95.03
2018-06-28T05:27:55.446Z,94.64
2018-06-28T05:28:55.470Z,94.26
2018-06-28T05:29:55.487Z,94.54
2018-06-28T05:30:55.537Z,94.35
2018-06-28T05:31:55.518Z,93.29
2018-06-28T05:32:55.537Z,93.68
2018-06-28T05:33:55.556Z,94.26
2018-06-28T05:34:55.658Z,93.58
2018-06-28T05:35:55.593Z,94.06
2018-06-28T05:36:55.601Z,93.96
2018-06-28T05:37:55.626Z,94.16
2018-06-28T05:38:55.636Z,94.06
2018-06-28T05:39:55.659Z,94.16
2018-06-28T05:40:55.674Z,93.58
2018-06-28T05:41:55.692Z,93.96
2018-06-28T05:42:55.705Z,93.96
2018-06-28T05:43:55.727Z,93.58
2018-06-28T05:44:55.852Z,94.16
2018-06-28T05:45:55.763Z,93.96
2018-06-28T05:46:55.775Z,94.06
2018-06-28T05:47:55.791Z,93.77
2018-06-28T05:48:55.814Z,93.77
2018-06-28T05:49:55.824Z,93.58
2018-06-28T05:50:55.844Z,94.16
2018-06-28T05:51:55.858Z,93.96
2018-06-28T05:52:55.880Z,93.58
2018-06-28T05:53:55.900Z,94.06
2018-06-28T05:54:55.912Z,93.39
2018-06-28T05:55:55.927Z,94.06
2018-06-28T05:56:55.945Z,94.16
2018-06-28T05:57:55.968Z,93.96
2018-06-28T05:58:55.983Z,93.96
2018-06-28T05:59:55.999Z,93.96
2018-06-28T06:00:56.019Z,94.35
2018-06-28T06:01:56.068Z,93.96
2018-06-28T06:02:56.046Z,93.29
2018-06-28T06:03:56.065Z,93.58
2018-06-28T06:04:56.080Z,94.01
2018-06-28T06:05:56.098Z,93.73
2018-06-28T06:06:56.121Z,93.63
2018-06-28T06:07:56.138Z,93.53
2018-06-28T06:08:56.153Z,93.73
2018-06-28T06:09:56.178Z,92.38
2018-06-28T06:10:56.185Z,92.57
2018-06-28T06:11:56.260Z,92.29
2018-06-28T06:12:56.235Z,92.57
2018-06-28T06:13:56.235Z,92.09
2018-06-28T06:14:56.253Z,92.38
2018-06-28T06:15:56.269Z,92.67
2018-06-28T06:16:56.295Z,92.38
2018-06-28T06:17:56.304Z,92.38
2018-06-28T06:18:56.396Z,92.38
2018-06-28T06:19:56.340Z,92.29
2018-06-28T06:20:56.363Z,92.67
2018-06-28T06:21:56.378Z,92.09
2018-06-28T06:22:56.393Z,91.99
2018-06-28T06:23:56.418Z,92.09
2018-06-28T06:24:56.428Z,91.99
2018-06-28T06:25:56.442Z,92.29
2018-06-28T06:26:56.548Z,92.19
2018-06-28T06:27:56.479Z,91.80
2018-06-28T06:28:56.494Z,91.80
2018-06-28T06:29:56.543Z,91.71
2018-06-28T06:30:56.532Z,92.09
2018-06-28T06:31:56.545Z,91.66
2018-06-28T06:32:56.562Z,91.52
2018-06-28T06:33:56.585Z,91.46
2018-06-28T06:34:56.599Z,91.27
2018-06-28T06:35:56.616Z,91.08
2018-06-28T06:36:56.634Z,90.79
2018-06-28T06:37:56.652Z,90.50
2018-06-28T06:38:56.671Z,90.21
2018-06-28T06:39:56.795Z,90.59
2018-06-28T06:40:56.706Z,90.79
2018-06-28T06:41:56.718Z,90.59
2018-06-28T06:42:56.739Z,89.73
2018-06-28T06:43:56.845Z,89.92
2018-06-28T06:44:56.775Z,90.41
2018-06-28T06:45:56.863Z,89.25
2018-06-28T06:46:56.813Z,89.58
2018-06-28T06:47:56.822Z,89.39
2018-06-28T06:48:56.842Z,89.01
2018-06-28T06:49:56.860Z,88.24
2018-06-28T06:50:56.876Z,89.01
2018-06-28T06:51:56.907Z,87.76
2018-06-28T06:52:56.912Z,88.14
2018-06-28T06:53:56.935Z,89.01
2018-06-28T06:54:56.954Z,88.62
2018-06-28T06:55:56.968Z,89.10
2018-06-28T06:56:56.983Z,88.71
2018-06-28T06:57:57.015Z,88.71
2018-06-28T06:58:57.025Z,88.33
2018-06-28T06:59:57.040Z,88.53
2018-06-28T07:00:57.062Z,88.53
2018-06-28T07:01:57.080Z,89.29
2018-06-28T07:02:57.096Z,88.62
2018-06-28T07:03:57.119Z,88.53
2018-06-28T07:04:57.124Z,89.06
2018-06-28T07:05:57.140Z,89.20
2018-06-28T07:06:57.159Z,88.53
2018-06-28T07:07:57.176Z,88.53
2018-06-28T07:08:57.192Z,87.76
2018-06-28T07:09:57.216Z,87.56
2018-06-28T07:10:57.230Z,87.85
2018-06-28T07:11:57.253Z,87.95
2018-06-28T07:12:57.262Z,87.66
2018-06-28T07:13:57.288Z,88.04
2018-06-28T07:14:57.303Z,88.09
2018-06-28T07:15:57.329Z,86.74
2018-06-28T07:16:57.339Z,86.74
2018-06-28T07:17:57.361Z,86.83
2018-06-28T07:18:57.376Z,87.12
2018-06-28T07:19:57.390Z,85.91
2018-06-28T07:20:57.410Z,85.34
2018-06-28T07:21:57.429Z,85.34
2018-06-28T07:22:57.479Z,85.24
2018-06-28T07:23:57.462Z,85.05
2018-06-28T07:24:57.493Z,85.91
2018-06-28T07:25:57.493Z,84.91
2018-06-28T07:26:57.518Z,85.87
2018-06-28T07:27:57.621Z,85.34
2018-06-28T07:28:57.569Z,85.43
2018-06-28T07:29:57.572Z,85.34
2018-06-28T07:30:57.587Z,85.24
2018-06-28T07:31:57.605Z,85.24
2018-06-28T07:32:57.660Z,85.91
2018-06-28T07:33:57.658Z,85.34
2018-06-28T07:34:57.672Z,85.14
2018-06-28T07:35:57.680Z,84.38
2018-06-28T07:36:57.696Z,84.12
2018-06-28T07:37:57.714Z,83.94
2018-06-28T07:38:57.732Z,83.45
2018-06-28T07:39:57.745Z,83.74
2018-06-28T07:40:57.766Z,83.36
2018-06-28T07:41:57.788Z,82.59
2018-06-28T07:42:57.805Z,82.92
2018-06-28T07:43:57.824Z,82.59
2018-06-28T07:44:57.845Z,82.49
2018-06-28T07:45:57.858Z,83.36
2018-06-28T07:46:57.932Z,83.16
2018-06-28T07:47:57.898Z,83.26
2018-06-28T07:48:57.914Z,82.72
2018-06-28T07:49:57.936Z,81.95
2018-06-28T07:50:57.954Z,81.85
2018-06-28T07:51:57.972Z,81.51
2018-06-28T07:52:57.991Z,81.60
2018-06-28T07:53:58.006Z,81.37
2018-06-28T07:54:58.037Z,81.62
2018-06-28T07:55:58.047Z,82.49
2018-06-28T07:56:58.057Z,83.45
2018-06-28T07:57:58.083Z,83.36
2018-06-28T07:58:58.101Z,82.97
2018-06-28T07:59:58.202Z,82.68
2018-06-28T08:00:58.140Z,83.61
2018-06-28T08:01:58.157Z,84.18
2018-06-28T08:02:58.171Z,83.84
2018-06-28T08:03:58.186Z,83.26
2018-06-28T08:04:58.210Z,83.55
2018-06-28T08:05:58.327Z,82.49
2018-06-28T08:06:58.243Z,82.68
2018-06-28T08:07:58.259Z,82.29
2018-06-28T08:08:58.281Z,81.85
2018-06-28T08:09:58.295Z,81.27
2018-06-28T08:10:58.317Z,81.57
2018-06-28T08:11:58.337Z,81.27
2018-06-28T08:12:58.357Z,81.27
2018-06-28T08:13:58.387Z,81.37
2018-06-28T08:14:58.396Z,81.12
2018-06-28T08:15:58.410Z,80.06
2018-06-28T08:16:58.473Z,79.49
2018-06-28T08:17:58.533Z,80.45
2018-06-28T08:18:58.466Z,79.77
2018-06-28T08:19:58.483Z,79.52
2018-06-28T08:20:58.505Z,79.52
2018-06-28T08:21:58.521Z,78.56
2018-06-28T08:22:58.539Z,78.36
2018-06-28T08:23:58.590Z,78.94
2018-06-28T08:24:58.579Z,78.17
2018-06-28T08:25:58.602Z,78.27
2018-06-28T08:26:58.682Z,78.27
2018-06-28T08:27:58.632Z,78.41
2018-06-28T08:28:58.659Z,77.53
2018-06-28T08:29:58.672Z,77.44
2018-06-28T08:30:58.689Z,76.61
2018-06-28T08:31:58.707Z,76.76
2018-06-28T08:32:58.726Z,76.67
2018-06-28T08:33:58.746Z,76.95
2018-06-28T08:34:58.765Z,77.98
2018-06-28T08:35:58.927Z,77.59
2018-06-28T08:36:58.801Z,78.17
2018-06-28T08:37:58.827Z,78.21
2018-06-28T08:38:58.838Z,77.40
2018-06-28T08:39:58.856Z,77.01
2018-06-28T08:40:58.876Z,77.44
2018-06-28T08:41:58.910Z,77.05
2018-06-28T08:42:58.915Z,76.76
2018-06-28T08:43:58.939Z,77.05
2018-06-28T08:44:58.953Z,76.76
2018-06-28T08:45:58.979Z,76.67
2018-06-28T08:46:58.997Z,76.03
2018-06-28T08:47:59.034Z,75.64
2018-06-28T08:48:59.091Z,75.64
2018-06-28T08:49:59.150Z,75.84
2018-06-28T08:50:59.070Z,75.54
2018-06-28T08:51:59.140Z,74.87
2018-06-28T08:52:59.104Z,74.58
2018-06-28T08:53:59.149Z,75.51
2018-06-28T08:54:59.146Z,75.93
2018-06-28T08:55:59.167Z,75.70
2018-06-28T08:56:59.190Z,76.53
2018-06-28T08:57:59.320Z,76.82
2018-06-28T08:58:59.226Z,76.67
2018-06-28T08:59:59.255Z,76.53
2018-06-28T09:00:59.259Z,76.67
2018-06-28T09:01:59.281Z,76.67
2018-06-28T09:02:59.301Z,77.30
2018-06-28T09:03:59.320Z,77.50
2018-06-28T09:04:59.338Z,77.34
2018-06-28T09:05:59.357Z,76.86
2018-06-28T09:06:59.380Z,76.51
2018-06-28T09:07:59.402Z,76.51
2018-06-28T09:08:59.418Z,75.54
2018-06-28T09:09:59.484Z,76.95
2018-06-28T09:10:59.460Z,76.95
2018-06-28T09:11:59.473Z,77.30
2018-06-28T09:12:59.495Z,77.63
2018-06-28T09:13:59.518Z,77.73
2018-06-28T09:14:59.537Z,77.15
2018-06-28T09:15:59.552Z,76.67
2018-06-28T09:16:59.573Z,77.01
2018-06-28T09:17:59.592Z,77.34
2018-06-28T09:18:59.622Z,77.05
2018-06-28T09:19:59.632Z,76.67
2018-06-28T09:20:59.650Z,76.57
2018-06-28T09:21:59.722Z,76.67
2018-06-28T09:22:59.769Z,76.90
2018-06-28T09:23:59.712Z,76.03
2018-06-28T09:24:59.726Z,75.54
2018-06-28T09:25:59.749Z,75.45
2018-06-28T09:26:59.767Z,76.09
2018-06-28T09:27:59.837Z,76.51
2018-06-28T09:28:59.808Z,75.45
2018-06-28T09:29:59.825Z,75.29
2018-06-28T09:30:59.912Z,74.90
2018-06-28T09:31:59.865Z,73.84
2018-06-28T09:32:59.878Z,73.97
2018-06-28T09:33:59.905Z,73.94
2018-06-28T09:34:59.922Z,75.16
2018-06-28T09:35:59.940Z,75.00
2018-06-28T09:37:00.009Z,75.35
2018-06-28T09:37:59.977Z,75.00
2018-06-28T09:38:59.994Z,74.42
2018-06-28T09:40:00.067Z,73.78
2018-06-28T09:41:00.035Z,73.01
2018-06-28T09:42:00.056Z,72.72
2018-06-28T09:43:00.132Z,72.49
2018-06-28T09:44:00.101Z,74.32
2018-06-28T09:45:00.118Z,73.94
2018-06-28T09:46:00.138Z,74.23
2018-06-28T09:47:00.159Z,74.42
2018-06-28T09:48:00.176Z,74.07
2018-06-28T09:49:00.286Z,72.95
2018-06-28T09:50:00.215Z,72.56
2018-06-28T09:51:00.239Z,72.11
2018-06-28T09:52:00.308Z,71.92
2018-06-28T09:53:00.277Z,71.14
2018-06-28T09:54:00.292Z,70.89
2018-06-28T09:55:00.315Z,71.18
2018-06-28T09:56:00.338Z,70.95
2018-06-28T09:57:00.351Z,70.98
2018-06-28T09:58:00.422Z,70.89
2018-06-28T09:59:00.400Z,70.11
2018-06-28T10:00:00.414Z,71.31
2018-06-28T10:01:00.433Z,70.31
2018-06-28T10:02:00.455Z,69.57
2018-06-28T10:03:00.481Z,70.01
2018-06-28T10:04:00.497Z,69.63
2018-06-28T10:05:00.523Z,70.01
2018-06-28T10:06:00.539Z,69.82
2018-06-28T10:07:00.554Z,68.99
2018-06-28T10:08:00.575Z,67.98
2018-06-28T10:09:00.619Z,70.31
2018-06-28T10:10:00.669Z,69.57
2018-06-28T10:11:00.642Z,68.63
2018-06-28T10:12:00.659Z,67.18
2018-06-28T10:13:00.677Z,65.95
2018-06-28T10:14:00.706Z,65.95
2018-06-28T10:15:00.721Z,65.05
2018-06-28T10:16:00.739Z,63.98
2018-06-28T10:17:00.760Z,63.20
2018-06-28T10:18:00.786Z,63.98
2018-06-28T10:19:00.803Z,63.91
2018-06-28T10:20:00.830Z,63.84
2018-06-28T10:21:00.847Z,61.58
2018-06-28T10:22:00.869Z,62.35
2018-06-28T10:23:00.894Z,61.65
2018-06-28T10:24:00.932Z,61.77
2018-06-28T10:25:00.973Z,62.42
2018-06-28T10:26:00.989Z,61.65
2018-06-28T10:27:00.972Z,61.58
2018-06-28T10:29:01.026Z,61.83
2018-06-28T10:30:01.045Z,60.08
2018-06-28T10:31:01.120Z,60.18
2018-06-28T10:32:01.086Z,58.82
2018-06-28T10:33:01.112Z,57.78
2018-06-28T10:34:01.184Z,57.87
2018-06-28T10:35:01.151Z,59.67
2018-06-28T10:36:01.168Z,61.51
2018-06-28T10:37:01.200Z,61.80
2018-06-28T10:38:01.295Z,61.65
2018-06-28T10:39:01.269Z,62.91
2018-06-28T10:40:01.310Z,63.04
2018-06-28T10:41:01.447Z,61.48
2018-06-28T10:42:01.301Z,61.84
2018-06-28T10:43:01.338Z,61.65
2018-06-28T10:44:01.368Z,62.88
2018-06-28T10:45:01.375Z,62.68
2018-06-28T10:46:01.431Z,62.81
2018-06-28T10:47:01.414Z,62.52
2018-06-28T10:48:01.450Z,62.65
2018-06-28T10:49:01.473Z,62.45
2018-06-28T10:50:01.590Z,61.29
2018-06-28T10:51:01.510Z,61.38
2018-06-28T10:52:01.531Z,61.00
2018-06-28T10:53:01.551Z,61.71
2018-06-28T10:54:01.611Z,60.47
2018-06-28T10:55:01.597Z,58.36
2018-06-28T10:56:01.650Z,57.03
2018-06-28T10:57:01.655Z,57.00
2018-06-28T10:58:01.660Z,58.72
2018-06-28T10:59:01.683Z,58.69
2018-06-28T11:00:01.698Z,58.79
2018-06-28T11:01:01.720Z,59.99
2018-06-28T11:02:01.750Z,58.72
2018-06-28T11:03:01.768Z,59.41
2018-06-28T11:04:01.796Z,59.83
2018-06-28T11:05:01.816Z,60.87
2018-06-28T11:06:01.836Z,62.19
2018-06-28T11:07:01.858Z,62.71
2018-06-28T11:08:01.879Z,61.87
2018-06-28T11:09:01.909Z,61.19
2018-06-28T11:10:01.979Z,61.38
2018-06-28T11:11:01.948Z,60.57
2018-06-28T11:12:01.970Z,59.18
2018-06-28T11:13:01.994Z,58.33
2018-06-28T11:14:02.123Z,59.08
2018-06-28T11:15:02.039Z,59.57
2018-06-28T11:16:02.109Z,58.53
2018-06-28T11:17:02.086Z,58.14
2018-06-28T11:18:02.100Z,59.64
2018-06-28T11:19:02.126Z,60.61
2018-06-28T11:20:02.193Z,60.22
2018-06-28T11:21:02.178Z,59.76
2018-06-28T11:22:02.247Z,58.92
2018-06-28T11:23:02.215Z,59.21
2018-06-28T11:24:02.233Z,57.68
2018-06-28T11:25:02.265Z,57.56
2018-06-28T11:26:02.286Z,57.32
2018-06-28T11:27:02.307Z,55.11
2018-06-28T11:28:02.376Z,54.52
2018-06-28T11:29:02.352Z,56.77
2018-06-28T11:30:02.376Z,56.61
2018-06-28T11:31:02.396Z,55.69
2018-06-28T11:32:02.419Z,55.04
2018-06-28T11:33:02.436Z,54.26
2018-06-28T11:34:02.510Z,53.09
2018-06-28T11:35:02.491Z,51.80
2018-06-28T11:36:02.516Z,51.75
2018-06-28T11:37:02.537Z,51.87
2018-06-28T11:38:02.610Z,51.70
2018-06-28T11:39:02.581Z,50.73
2018-06-28T11:40:02.653Z,52.29
2018-06-28T11:41:02.625Z,50.63
2018-06-28T11:42:02.642Z,49.90
2018-06-28T11:43:02.674Z,49.39
2018-06-28T11:44:02.696Z,50.14
2018-06-28T11:45:02.755Z,49.80
2018-06-28T11:46:02.793Z,48.93
2018-06-28T11:47:02.767Z,49.37
2018-06-28T11:48:02.789Z,49.71
2018-06-28T11:49:02.861Z,48.88
2018-06-28T11:50:02.834Z,50.92
2018-06-28T11:51:02.896Z,49.78
2018-06-28T11:52:02.885Z,50.36
2018-06-28T11:53:02.912Z,48.97
2018-06-28T11:54:02.936Z,50.24
2018-06-28T11:55:02.954Z,50.34
2018-06-28T11:56:02.983Z,51.02
2018-06-28T11:57:03.096Z,50.34
2018-06-28T11:58:03.033Z,50.26
2018-06-28T11:59:03.059Z,49.22
2018-06-28T12:00:03.074Z,48.36
2018-06-28T12:01:03.103Z,46.82
2018-06-28T12:02:03.134Z,46.43
2018-06-28T12:03:03.215Z,48.28
2018-06-28T12:04:03.177Z,47.14
2018-06-28T12:05:03.203Z,46.98
2018-06-28T12:06:03.224Z,44.42
2018-06-28T12:07:03.253Z,46.94
2018-06-28T12:08:03.272Z,46.23
2018-06-28T12:09:03.296Z,46.14
2018-06-28T12:10:03.325Z,46.50
2018-06-28T12:11:03.348Z,48.95
2018-06-28T12:12:03.374Z,50.38
2018-06-28T12:13:03.401Z,51.73
2018-06-28T12:14:03.420Z,52.40
2018-06-28T12:15:03.504Z,52.97
2018-06-28T12:16:03.471Z,54.72
2018-06-28T12:17:03.499Z,55.50
2018-06-28T12:32:03.848Z,66.75
2018-06-28T12:33:04.019Z,67.08
2018-06-28T12:34:03.896Z,66.60
2018-06-28T12:35:03.918Z,67.08
2018-06-28T12:36:03.941Z,67.27
2018-06-28T12:37:03.959Z,66.56
2018-06-28T12:38:03.983Z,67.14
2018-06-28T12:39:04.071Z,67.88
2018-06-28T12:40:04.027Z,69.31
2018-06-28T12:41:04.049Z,70.18
2018-06-28T12:42:04.067Z,70.47
2018-06-28T12:43:04.089Z,69.79
2018-06-28T12:44:04.112Z,69.89
2018-06-28T12:45:04.191Z,69.59
2018-06-28T12:46:04.164Z,69.40
2018-06-28T12:47:04.187Z,70.18
2018-06-28T12:48:04.201Z,69.92
2018-06-28T12:49:04.219Z,70.08
2018-06-28T12:50:04.239Z,69.92
2018-06-28T12:51:04.321Z,70.21
2018-06-28T12:52:04.292Z,69.63
2018-06-28T12:53:04.305Z,69.63
2018-06-28T12:54:04.344Z,70.31
2018-06-28T12:55:04.349Z,70.11
2018-06-28T12:56:04.374Z,70.31
2018-06-28T12:57:04.434Z,69.92
2018-06-28T12:58:04.406Z,70.11
2018-06-28T12:59:04.429Z,69.63
2018-06-28T13:00:04.509Z,70.11
2018-06-28T13:01:04.465Z,68.79
2018-06-28T13:02:04.490Z,68.08
2018-06-28T13:03:04.518Z,67.72
2018-06-28T13:04:04.533Z,67.63
2018-06-28T13:05:04.546Z,67.53
2018-06-28T13:06:04.575Z,67.08
2018-06-28T13:07:04.624Z,66.30
2018-06-28T13:08:04.613Z,65.82
2018-06-28T13:10:04.654Z,64.72
2018-06-28T13:11:04.683Z,65.17